sensor_id;sensor_type;location;lat;lon;timestamp;P1;durP1;ratioP1;P2;durP2;ratioP2
48596;SDS011;34382;43.160;24.148;2023-12-07T00:00:44;49.10;;;25.25;;
48596;SDS011;34382;43.160;24.148;2023-12-07T00:02:16;44.33;;;24.48;;
48596;SDS011;34382;43.160;24.148;2023-12-07T00:03:48;49.53;;;25.40;;
48596;SDS011;34382;43.160;24.148;2023-12-07T00:05:20;52.13;;;26.50;;
48596;SDS011;34382;43.160;24.148;2023-12-07T00:06:53;50.25;;;24.88;;
48596;SDS011;34382;43.160;24.148;2023-12-07T00:08:25;45.65;;;25.83;;
48596;SDS011;34382;43.160;24.148;2023-12-07T00:09:57;49.13;;;25.25;;
48596;SDS011;34382;43.160;24.148;2023-12-07T00:11:29;46.97;;;24.98;;
48596;SDS011;34382;43.160;24.148;2023-12-07T00:13:04;50.85;;;25.13;;
48596;SDS011;34382;43.160;24.148;2023-12-07T00:14:36;45.25;;;24.35;;
48596;SDS011;34382;43.160;24.148;2023-12-07T00:16:09;52.83;;;25.15;;
48596;SDS011;34382;43.160;24.148;2023-12-07T00:17:41;46.78;;;23.35;;
48596;SDS011;34382;43.160;24.148;2023-12-07T00:19:14;50.35;;;25.20;;
48596;SDS011;34382;43.160;24.148;2023-12-07T00:20:46;54.90;;;25.25;;
48596;SDS011;34382;43.160;24.148;2023-12-07T00:22:19;48.72;;;23.17;;
48596;SDS011;34382;43.160;24.148;2023-12-07T00:23:52;47.92;;;24.55;;
48596;SDS011;34382;43.160;24.148;2023-12-07T00:25:25;46.28;;;23.08;;
48596;SDS011;34382;43.160;24.148;2023-12-07T00:26:57;45.15;;;24.05;;
48596;SDS011;34382;43.160;24.148;2023-12-07T00:28:29;46.53;;;23.85;;
48596;SDS011;34382;43.160;24.148;2023-12-07T00:30:02;44.58;;;22.33;;
48596;SDS011;34382;43.160;24.148;2023-12-07T00:31:35;49.78;;;24.55;;
48596;SDS011;34382;43.160;24.148;2023-12-07T00:34:40;47.83;;;23.95;;
48596;SDS011;34382;43.160;24.148;2023-12-07T00:36:13;49.67;;;23.75;;
48596;SDS011;34382;43.160;24.148;2023-12-07T00:37:45;47.20;;;24.80;;
48596;SDS011;34382;43.160;24.148;2023-12-07T00:39:17;53.50;;;23.85;;
48596;SDS011;34382;43.160;24.148;2023-12-07T00:40:49;44.67;;;23.10;;
48596;SDS011;34382;43.160;24.148;2023-12-07T00:42:22;50.35;;;23.88;;
48596;SDS011;34382;43.160;24.148;2023-12-07T00:43:54;52.13;;;25.13;;
48596;SDS011;34382;43.160;24.148;2023-12-07T00:45:26;55.28;;;25.35;;
48596;SDS011;34382;43.160;24.148;2023-12-07T00:46:59;47.15;;;25.00;;
48596;SDS011;34382;43.160;24.148;2023-12-07T00:48:31;48.28;;;23.65;;
48596;SDS011;34382;43.160;24.148;2023-12-07T00:50:04;48.50;;;22.70;;
48596;SDS011;34382;43.160;24.148;2023-12-07T00:51:37;42.47;;;21.67;;
48596;SDS011;34382;43.160;24.148;2023-12-07T00:53:09;45.50;;;22.88;;
48596;SDS011;34382;43.160;24.148;2023-12-07T00:54:41;47.75;;;23.25;;
48596;SDS011;34382;43.160;24.148;2023-12-07T00:56:13;46.05;;;23.58;;
48596;SDS011;34382;43.160;24.148;2023-12-07T00:57:46;45.22;;;22.20;;
48596;SDS011;34382;43.160;24.148;2023-12-07T00:59:18;47.90;;;22.58;;
48596;SDS011;34382;43.160;24.148;2023-12-07T01:00:50;45.63;;;22.10;;
48596;SDS011;34382;43.160;24.148;2023-12-07T01:02:23;47.83;;;24.35;;
48596;SDS011;34382;43.160;24.148;2023-12-07T01:03:56;39.55;;;22.23;;
48596;SDS011;34382;43.160;24.148;2023-12-07T01:05:28;47.47;;;22.67;;
48596;SDS011;34382;43.160;24.148;2023-12-07T01:08:34;46.93;;;24.00;;
48596;SDS011;34382;43.160;24.148;2023-12-07T01:10:06;41.75;;;21.70;;
48596;SDS011;34382;43.160;24.148;2023-12-07T01:11:39;39.97;;;20.90;;
48596;SDS011;34382;43.160;24.148;2023-12-07T01:13:14;45.70;;;21.55;;
48596;SDS011;34382;43.160;24.148;2023-12-07T01:14:46;48.80;;;22.55;;
48596;SDS011;34382;43.160;24.148;2023-12-07T01:16:19;43.35;;;21.63;;
48596;SDS011;34382;43.160;24.148;2023-12-07T01:17:51;45.67;;;21.17;;
48596;SDS011;34382;43.160;24.148;2023-12-07T01:19:25;48.03;;;22.52;;
48596;SDS011;34382;43.160;24.148;2023-12-07T01:20:57;45.88;;;21.17;;
48596;SDS011;34382;43.160;24.148;2023-12-07T01:22:30;47.17;;;21.30;;
48596;SDS011;34382;43.160;24.148;2023-12-07T01:24:02;48.95;;;21.63;;
48596;SDS011;34382;43.160;24.148;2023-12-07T01:27:19;51.58;;;21.48;;
48596;SDS011;34382;43.160;24.148;2023-12-07T01:28:51;42.88;;;20.67;;
48596;SDS011;34382;43.160;24.148;2023-12-07T01:30:23;46.67;;;21.45;;
48596;SDS011;34382;43.160;24.148;2023-12-07T01:31:55;52.83;;;23.20;;
48596;SDS011;34382;43.160;24.148;2023-12-07T01:33:27;48.45;;;22.85;;
48596;SDS011;34382;43.160;24.148;2023-12-07T01:35:00;51.00;;;23.33;;
48596;SDS011;34382;43.160;24.148;2023-12-07T01:36:32;50.25;;;22.13;;
48596;SDS011;34382;43.160;24.148;2023-12-07T01:38:05;48.47;;;21.67;;
48596;SDS011;34382;43.160;24.148;2023-12-07T01:39:37;46.60;;;21.65;;
48596;SDS011;34382;43.160;24.148;2023-12-07T01:41:09;48.50;;;21.45;;
48596;SDS011;34382;43.160;24.148;2023-12-07T01:42:53;49.88;;;23.00;;
48596;SDS011;34382;43.160;24.148;2023-12-07T01:44:25;57.38;;;21.67;;
48596;SDS011;34382;43.160;24.148;2023-12-07T01:45:59;49.28;;;21.05;;
48596;SDS011;34382;43.160;24.148;2023-12-07T01:47:32;48.72;;;21.33;;
48596;SDS011;34382;43.160;24.148;2023-12-07T01:49:05;55.78;;;23.35;;
48596;SDS011;34382;43.160;24.148;2023-12-07T01:50:38;50.40;;;24.25;;
48596;SDS011;34382;43.160;24.148;2023-12-07T01:52:10;44.22;;;20.98;;
48596;SDS011;34382;43.160;24.148;2023-12-07T01:53:43;53.15;;;23.58;;
48596;SDS011;34382;43.160;24.148;2023-12-07T01:55:15;44.08;;;20.73;;
48596;SDS011;34382;43.160;24.148;2023-12-07T01:56:47;50.40;;;22.33;;
48596;SDS011;34382;43.160;24.148;2023-12-07T01:58:20;56.20;;;23.00;;
48596;SDS011;34382;43.160;24.148;2023-12-07T01:59:52;57.13;;;22.98;;
48596;SDS011;34382;43.160;24.148;2023-12-07T02:01:25;47.20;;;22.52;;
48596;SDS011;34382;43.160;24.148;2023-12-07T02:02:57;52.22;;;23.17;;
48596;SDS011;34382;43.160;24.148;2023-12-07T02:04:29;41.58;;;21.63;;
48596;SDS011;34382;43.160;24.148;2023-12-07T02:06:02;48.63;;;22.50;;
48596;SDS011;34382;43.160;24.148;2023-12-07T02:07:35;47.97;;;21.67;;
48596;SDS011;34382;43.160;24.148;2023-12-07T02:09:07;49.83;;;23.60;;
48596;SDS011;34382;43.160;24.148;2023-12-07T02:10:40;53.58;;;23.55;;
48596;SDS011;34382;43.160;24.148;2023-12-07T02:12:13;51.80;;;22.70;;
48596;SDS011;34382;43.160;24.148;2023-12-07T02:13:45;55.13;;;22.92;;
48596;SDS011;34382;43.160;24.148;2023-12-07T02:15:18;41.60;;;20.75;;
48596;SDS011;34382;43.160;24.148;2023-12-07T02:16:55;46.83;;;21.38;;
48596;SDS011;34382;43.160;24.148;2023-12-07T02:18:37;46.72;;;20.83;;
48596;SDS011;34382;43.160;24.148;2023-12-07T02:20:21;50.45;;;20.90;;
48596;SDS011;34382;43.160;24.148;2023-12-07T02:22:02;49.25;;;21.73;;
48596;SDS011;34382;43.160;24.148;2023-12-07T02:23:54;50.05;;;21.48;;
48596;SDS011;34382;43.160;24.148;2023-12-07T02:25:29;51.58;;;20.90;;
48596;SDS011;34382;43.160;24.148;2023-12-07T02:27:04;48.03;;;21.45;;
48596;SDS011;34382;43.160;24.148;2023-12-07T02:28:36;50.22;;;21.67;;
48596;SDS011;34382;43.160;24.148;2023-12-07T02:30:09;52.00;;;21.45;;
48596;SDS011;34382;43.160;24.148;2023-12-07T02:33:15;50.28;;;21.00;;
48596;SDS011;34382;43.160;24.148;2023-12-07T02:34:47;48.28;;;19.73;;
48596;SDS011;34382;43.160;24.148;2023-12-07T02:36:20;47.58;;;20.38;;
48596;SDS011;34382;43.160;24.148;2023-12-07T02:37:54;46.25;;;20.05;;
48596;SDS011;34382;43.160;24.148;2023-12-07T02:39:26;45.47;;;20.38;;
48596;SDS011;34382;43.160;24.148;2023-12-07T02:40:59;46.53;;;20.55;;
48596;SDS011;34382;43.160;24.148;2023-12-07T02:42:31;47.63;;;20.40;;
48596;SDS011;34382;43.160;24.148;2023-12-07T02:45:37;52.05;;;20.65;;
48596;SDS011;34382;43.160;24.148;2023-12-07T02:47:09;44.75;;;19.92;;
48596;SDS011;34382;43.160;24.148;2023-12-07T02:48:41;46.03;;;20.65;;
48596;SDS011;34382;43.160;24.148;2023-12-07T02:50:17;43.88;;;21.30;;
48596;SDS011;34382;43.160;24.148;2023-12-07T02:51:49;48.40;;;20.45;;
48596;SDS011;34382;43.160;24.148;2023-12-07T02:53:21;43.65;;;20.88;;
48596;SDS011;34382;43.160;24.148;2023-12-07T02:54:54;46.13;;;20.58;;
48596;SDS011;34382;43.160;24.148;2023-12-07T02:56:26;44.70;;;21.50;;
48596;SDS011;34382;43.160;24.148;2023-12-07T02:57:58;43.03;;;19.70;;
48596;SDS011;34382;43.160;24.148;2023-12-07T02:59:31;49.92;;;21.17;;
48596;SDS011;34382;43.160;24.148;2023-12-07T03:01:03;48.72;;;20.75;;
48596;SDS011;34382;43.160;24.148;2023-12-07T03:02:37;45.30;;;20.23;;
48596;SDS011;34382;43.160;24.148;2023-12-07T03:04:10;46.03;;;19.92;;
48596;SDS011;34382;43.160;24.148;2023-12-07T03:05:42;46.70;;;20.60;;
48596;SDS011;34382;43.160;24.148;2023-12-07T03:07:15;50.67;;;21.17;;
48596;SDS011;34382;43.160;24.148;2023-12-07T03:08:47;49.03;;;20.67;;
48596;SDS011;34382;43.160;24.148;2023-12-07T03:10:19;52.40;;;20.95;;
48596;SDS011;34382;43.160;24.148;2023-12-07T03:11:52;45.20;;;20.52;;
48596;SDS011;34382;43.160;24.148;2023-12-07T03:13:24;51.65;;;20.15;;
48596;SDS011;34382;43.160;24.148;2023-12-07T03:14:56;49.13;;;20.95;;
48596;SDS011;34382;43.160;24.148;2023-12-07T03:16:29;48.60;;;20.63;;
48596;SDS011;34382;43.160;24.148;2023-12-07T03:18:01;48.75;;;21.02;;
48596;SDS011;34382;43.160;24.148;2023-12-07T03:19:37;55.03;;;21.80;;
48596;SDS011;34382;43.160;24.148;2023-12-07T03:21:10;48.00;;;20.05;;
48596;SDS011;34382;43.160;24.148;2023-12-07T03:22:42;52.17;;;21.10;;
48596;SDS011;34382;43.160;24.148;2023-12-07T03:24:15;49.77;;;19.53;;
48596;SDS011;34382;43.160;24.148;2023-12-07T03:25:47;46.58;;;20.70;;
48596;SDS011;34382;43.160;24.148;2023-12-07T03:27:19;45.22;;;19.38;;
48596;SDS011;34382;43.160;24.148;2023-12-07T03:28:52;48.67;;;19.17;;
48596;SDS011;34382;43.160;24.148;2023-12-07T03:30:24;49.88;;;19.25;;
48596;SDS011;34382;43.160;24.148;2023-12-07T03:31:57;53.47;;;19.45;;
48596;SDS011;34382;43.160;24.148;2023-12-07T03:33:29;47.58;;;19.88;;
48596;SDS011;34382;43.160;24.148;2023-12-07T03:35:02;55.33;;;20.13;;
48596;SDS011;34382;43.160;24.148;2023-12-07T03:36:34;48.17;;;19.35;;
48596;SDS011;34382;43.160;24.148;2023-12-07T03:38:06;49.92;;;19.95;;
48596;SDS011;34382;43.160;24.148;2023-12-07T03:39:41;48.13;;;19.70;;
48596;SDS011;34382;43.160;24.148;2023-12-07T03:41:13;48.88;;;19.85;;
48596;SDS011;34382;43.160;24.148;2023-12-07T03:42:45;47.28;;;18.75;;
48596;SDS011;34382;43.160;24.148;2023-12-07T03:44:27;49.38;;;21.88;;
48596;SDS011;34382;43.160;24.148;2023-12-07T03:45:59;47.67;;;19.95;;
48596;SDS011;34382;43.160;24.148;2023-12-07T03:47:31;52.60;;;20.15;;
48596;SDS011;34382;43.160;24.148;2023-12-07T03:52:06;59.30;;;20.27;;
48596;SDS011;34382;43.160;24.148;2023-12-07T03:53:39;48.75;;;19.90;;
48596;SDS011;34382;43.160;24.148;2023-12-07T03:55:11;49.42;;;18.58;;
48596;SDS011;34382;43.160;24.148;2023-12-07T03:56:44;54.10;;;19.20;;
48596;SDS011;34382;43.160;24.148;2023-12-07T03:58:16;49.05;;;19.88;;
48596;SDS011;34382;43.160;24.148;2023-12-07T03:59:48;43.53;;;18.77;;
48596;SDS011;34382;43.160;24.148;2023-12-07T04:01:21;49.13;;;18.88;;
48596;SDS011;34382;43.160;24.148;2023-12-07T04:02:55;48.72;;;19.65;;
48596;SDS011;34382;43.160;24.148;2023-12-07T04:04:27;47.67;;;19.80;;
48596;SDS011;34382;43.160;24.148;2023-12-07T04:06:00;47.58;;;19.88;;
48596;SDS011;34382;43.160;24.148;2023-12-07T04:07:32;51.58;;;19.75;;
48596;SDS011;34382;43.160;24.148;2023-12-07T04:09:05;59.70;;;25.33;;
48596;SDS011;34382;43.160;24.148;2023-12-07T04:10:37;60.30;;;21.80;;
48596;SDS011;34382;43.160;24.148;2023-12-07T04:12:10;51.00;;;20.00;;
48596;SDS011;34382;43.160;24.148;2023-12-07T04:13:42;47.38;;;20.33;;
48596;SDS011;34382;43.160;24.148;2023-12-07T04:15:15;52.70;;;19.85;;
48596;SDS011;34382;43.160;24.148;2023-12-07T04:16:50;55.60;;;21.75;;
48596;SDS011;34382;43.160;24.148;2023-12-07T04:18:22;59.40;;;22.40;;
48596;SDS011;34382;43.160;24.148;2023-12-07T04:19:54;60.78;;;23.48;;
48596;SDS011;34382;43.160;24.148;2023-12-07T04:21:26;56.28;;;23.00;;
48596;SDS011;34382;43.160;24.148;2023-12-07T04:22:59;54.17;;;25.50;;
48596;SDS011;34382;43.160;24.148;2023-12-07T04:24:31;56.22;;;25.08;;
48596;SDS011;34382;43.160;24.148;2023-12-07T04:26:03;52.15;;;21.90;;
48596;SDS011;34382;43.160;24.148;2023-12-07T04:27:36;54.53;;;21.25;;
48596;SDS011;34382;43.160;24.148;2023-12-07T04:29:08;52.03;;;21.95;;
48596;SDS011;34382;43.160;24.148;2023-12-07T04:30:40;56.92;;;21.77;;
48596;SDS011;34382;43.160;24.148;2023-12-07T04:32:12;59.42;;;22.40;;
48596;SDS011;34382;43.160;24.148;2023-12-07T04:33:46;56.20;;;20.30;;
48596;SDS011;34382;43.160;24.148;2023-12-07T04:35:18;49.47;;;19.38;;
48596;SDS011;34382;43.160;24.148;2023-12-07T04:36:50;58.17;;;23.17;;
48596;SDS011;34382;43.160;24.148;2023-12-07T04:38:23;54.00;;;19.30;;
48596;SDS011;34382;43.160;24.148;2023-12-07T04:39:55;42.65;;;18.45;;
48596;SDS011;34382;43.160;24.148;2023-12-07T04:41:27;51.42;;;19.83;;
48596;SDS011;34382;43.160;24.148;2023-12-07T04:42:59;50.50;;;20.30;;
48596;SDS011;34382;43.160;24.148;2023-12-07T04:44:33;62.85;;;25.40;;
48596;SDS011;34382;43.160;24.148;2023-12-07T04:46:05;53.15;;;26.42;;
48596;SDS011;34382;43.160;24.148;2023-12-07T04:47:38;63.35;;;30.52;;
48596;SDS011;34382;43.160;24.148;2023-12-07T04:49:10;74.07;;;32.22;;
48596;SDS011;34382;43.160;24.148;2023-12-07T04:50:42;71.80;;;26.30;;
48596;SDS011;34382;43.160;24.148;2023-12-07T04:52:15;65.15;;;28.55;;
48596;SDS011;34382;43.160;24.148;2023-12-07T04:53:47;65.05;;;28.42;;
48596;SDS011;34382;43.160;24.148;2023-12-07T04:56:52;51.63;;;22.58;;
48596;SDS011;34382;43.160;24.148;2023-12-07T04:58:25;60.30;;;22.73;;
48596;SDS011;34382;43.160;24.148;2023-12-07T04:59:58;48.13;;;19.98;;
48596;SDS011;34382;43.160;24.148;2023-12-07T05:01:30;54.00;;;19.45;;
48596;SDS011;34382;43.160;24.148;2023-12-07T05:03:03;45.10;;;19.45;;
48596;SDS011;34382;43.160;24.148;2023-12-07T05:04:35;45.75;;;18.52;;
48596;SDS011;34382;43.160;24.148;2023-12-07T05:06:07;61.47;;;20.15;;
48596;SDS011;34382;43.160;24.148;2023-12-07T05:07:40;51.22;;;19.80;;
48596;SDS011;34382;43.160;24.148;2023-12-07T05:09:13;47.60;;;20.40;;
48596;SDS011;34382;43.160;24.148;2023-12-07T05:10:45;58.90;;;20.38;;
48596;SDS011;34382;43.160;24.148;2023-12-07T05:12:18;55.97;;;22.83;;
48596;SDS011;34382;43.160;24.148;2023-12-07T05:13:50;59.10;;;22.23;;
48596;SDS011;34382;43.160;24.148;2023-12-07T05:15:23;52.58;;;20.20;;
48596;SDS011;34382;43.160;24.148;2023-12-07T05:16:56;44.83;;;20.23;;
48596;SDS011;34382;43.160;24.148;2023-12-07T05:18:29;55.72;;;20.48;;
48596;SDS011;34382;43.160;24.148;2023-12-07T05:20:02;53.78;;;21.55;;
48596;SDS011;34382;43.160;24.148;2023-12-07T05:21:37;53.30;;;21.05;;
48596;SDS011;34382;43.160;24.148;2023-12-07T05:23:09;54.97;;;21.25;;
48596;SDS011;34382;43.160;24.148;2023-12-07T05:24:42;49.30;;;19.25;;
48596;SDS011;34382;43.160;24.148;2023-12-07T05:26:14;61.08;;;22.67;;
48596;SDS011;34382;43.160;24.148;2023-12-07T05:27:49;59.42;;;21.02;;
48596;SDS011;34382;43.160;24.148;2023-12-07T05:29:22;58.60;;;23.27;;
48596;SDS011;34382;43.160;24.148;2023-12-07T05:30:54;60.58;;;23.60;;
48596;SDS011;34382;43.160;24.148;2023-12-07T05:32:29;60.95;;;23.83;;
48596;SDS011;34382;43.160;24.148;2023-12-07T05:34:01;59.40;;;22.20;;
48596;SDS011;34382;43.160;24.148;2023-12-07T05:35:33;53.72;;;22.35;;
48596;SDS011;34382;43.160;24.148;2023-12-07T05:37:06;60.97;;;22.70;;
48596;SDS011;34382;43.160;24.148;2023-12-07T05:38:38;55.35;;;22.08;;
48596;SDS011;34382;43.160;24.148;2023-12-07T05:40:10;60.97;;;21.50;;
48596;SDS011;34382;43.160;24.148;2023-12-07T05:41:44;48.20;;;20.70;;
48596;SDS011;34382;43.160;24.148;2023-12-07T05:43:18;59.22;;;21.80;;
48596;SDS011;34382;43.160;24.148;2023-12-07T05:44:50;48.42;;;21.40;;
48596;SDS011;34382;43.160;24.148;2023-12-07T05:46:23;47.00;;;21.63;;
48596;SDS011;34382;43.160;24.148;2023-12-07T05:47:55;56.33;;;22.35;;
48596;SDS011;34382;43.160;24.148;2023-12-07T05:49:28;52.25;;;22.20;;
48596;SDS011;34382;43.160;24.148;2023-12-07T05:51:01;56.85;;;22.40;;
48596;SDS011;34382;43.160;24.148;2023-12-07T05:54:06;52.42;;;21.77;;
48596;SDS011;34382;43.160;24.148;2023-12-07T05:55:38;52.50;;;21.38;;
48596;SDS011;34382;43.160;24.148;2023-12-07T05:57:11;55.47;;;21.75;;
48596;SDS011;34382;43.160;24.148;2023-12-07T05:58:44;53.42;;;20.55;;
48596;SDS011;34382;43.160;24.148;2023-12-07T06:00:17;51.30;;;22.63;;
48596;SDS011;34382;43.160;24.148;2023-12-07T06:01:53;49.72;;;23.35;;
48596;SDS011;34382;43.160;24.148;2023-12-07T06:03:25;55.70;;;24.05;;
48596;SDS011;34382;43.160;24.148;2023-12-07T06:04:58;53.75;;;24.58;;
48596;SDS011;34382;43.160;24.148;2023-12-07T06:06:30;53.47;;;24.48;;
48596;SDS011;34382;43.160;24.148;2023-12-07T06:08:03;56.95;;;24.25;;
48596;SDS011;34382;43.160;24.148;2023-12-07T06:09:38;53.10;;;24.35;;
48596;SDS011;34382;43.160;24.148;2023-12-07T06:11:11;63.45;;;27.65;;
48596;SDS011;34382;43.160;24.148;2023-12-07T06:12:43;53.25;;;25.35;;
48596;SDS011;34382;43.160;24.148;2023-12-07T06:14:16;55.47;;;25.80;;
48596;SDS011;34382;43.160;24.148;2023-12-07T06:15:48;50.80;;;23.13;;
48596;SDS011;34382;43.160;24.148;2023-12-07T06:17:20;60.85;;;25.27;;
48596;SDS011;34382;43.160;24.148;2023-12-07T06:18:53;53.58;;;23.70;;
48596;SDS011;34382;43.160;24.148;2023-12-07T06:20:25;60.42;;;24.88;;
48596;SDS011;34382;43.160;24.148;2023-12-07T06:21:57;58.75;;;22.50;;
48596;SDS011;34382;43.160;24.148;2023-12-07T06:23:30;52.70;;;22.98;;
48596;SDS011;34382;43.160;24.148;2023-12-07T06:25:02;51.42;;;22.52;;
48596;SDS011;34382;43.160;24.148;2023-12-07T06:26:35;53.25;;;22.45;;
48596;SDS011;34382;43.160;24.148;2023-12-07T06:28:08;42.13;;;20.90;;
48596;SDS011;34382;43.160;24.148;2023-12-07T06:29:40;48.78;;;21.95;;
48596;SDS011;34382;43.160;24.148;2023-12-07T06:31:13;53.83;;;23.27;;
48596;SDS011;34382;43.160;24.148;2023-12-07T06:32:47;50.00;;;23.42;;
48596;SDS011;34382;43.160;24.148;2023-12-07T06:34:20;53.83;;;23.10;;
48596;SDS011;34382;43.160;24.148;2023-12-07T06:35:53;52.90;;;22.40;;
48596;SDS011;34382;43.160;24.148;2023-12-07T06:37:25;50.15;;;23.23;;
48596;SDS011;34382;43.160;24.148;2023-12-07T06:38:58;50.50;;;22.45;;
48596;SDS011;34382;43.160;24.148;2023-12-07T06:40:30;50.45;;;21.40;;
48596;SDS011;34382;43.160;24.148;2023-12-07T06:42:03;56.42;;;22.90;;
48596;SDS011;34382;43.160;24.148;2023-12-07T06:43:35;50.90;;;22.95;;
48596;SDS011;34382;43.160;24.148;2023-12-07T06:45:08;54.97;;;23.83;;
48596;SDS011;34382;43.160;24.148;2023-12-07T06:46:46;49.25;;;23.63;;
48596;SDS011;34382;43.160;24.148;2023-12-07T06:48:18;52.65;;;23.02;;
48596;SDS011;34382;43.160;24.148;2023-12-07T06:49:50;46.58;;;21.80;;
48596;SDS011;34382;43.160;24.148;2023-12-07T06:51:24;55.40;;;22.48;;
48596;SDS011;34382;43.160;24.148;2023-12-07T06:52:56;50.38;;;23.30;;
48596;SDS011;34382;43.160;24.148;2023-12-07T06:54:28;46.95;;;21.33;;
48596;SDS011;34382;43.160;24.148;2023-12-07T06:56:01;46.60;;;21.73;;
48596;SDS011;34382;43.160;24.148;2023-12-07T06:57:33;54.83;;;22.40;;
48596;SDS011;34382;43.160;24.148;2023-12-07T06:59:06;49.50;;;22.00;;
48596;SDS011;34382;43.160;24.148;2023-12-07T07:00:38;46.63;;;21.67;;
48596;SDS011;34382;43.160;24.148;2023-12-07T07:02:11;48.67;;;22.95;;
48596;SDS011;34382;43.160;24.148;2023-12-07T07:03:43;48.70;;;21.85;;
48596;SDS011;34382;43.160;24.148;2023-12-07T07:05:16;46.47;;;20.70;;
48596;SDS011;34382;43.160;24.148;2023-12-07T07:06:51;45.53;;;20.92;;
48596;SDS011;34382;43.160;24.148;2023-12-07T07:08:24;54.45;;;22.45;;
48596;SDS011;34382;43.160;24.148;2023-12-07T07:09:56;39.80;;;20.40;;
48596;SDS011;34382;43.160;24.148;2023-12-07T07:11:32;49.15;;;24.38;;
48596;SDS011;34382;43.160;24.148;2023-12-07T07:13:04;47.67;;;23.33;;
48596;SDS011;34382;43.160;24.148;2023-12-07T07:14:36;54.58;;;24.67;;
48596;SDS011;34382;43.160;24.148;2023-12-07T07:16:09;49.35;;;23.48;;
48596;SDS011;34382;43.160;24.148;2023-12-07T07:17:41;41.08;;;21.25;;
48596;SDS011;34382;43.160;24.148;2023-12-07T07:19:14;45.65;;;22.65;;
48596;SDS011;34382;43.160;24.148;2023-12-07T07:20:49;38.22;;;18.63;;
48596;SDS011;34382;43.160;24.148;2023-12-07T07:22:21;44.88;;;22.02;;
48596;SDS011;34382;43.160;24.148;2023-12-07T07:23:53;39.97;;;18.63;;
48596;SDS011;34382;43.160;24.148;2023-12-07T07:25:26;39.08;;;17.50;;
48596;SDS011;34382;43.160;24.148;2023-12-07T07:26:58;38.43;;;18.00;;
48596;SDS011;34382;43.160;24.148;2023-12-07T07:28:31;42.35;;;20.48;;
48596;SDS011;34382;43.160;24.148;2023-12-07T07:30:03;36.97;;;17.33;;
48596;SDS011;34382;43.160;24.148;2023-12-07T07:31:36;33.53;;;14.77;;
48596;SDS011;34382;43.160;24.148;2023-12-07T07:33:09;56.38;;;29.27;;
48596;SDS011;34382;43.160;24.148;2023-12-07T07:34:41;44.25;;;22.50;;
48596;SDS011;34382;43.160;24.148;2023-12-07T07:36:14;40.13;;;19.35;;
48596;SDS011;34382;43.160;24.148;2023-12-07T07:37:46;39.00;;;18.38;;
48596;SDS011;34382;43.160;24.148;2023-12-07T07:39:19;35.53;;;17.98;;
48596;SDS011;34382;43.160;24.148;2023-12-07T07:40:51;38.72;;;18.35;;
48596;SDS011;34382;43.160;24.148;2023-12-07T07:42:23;41.55;;;20.20;;
48596;SDS011;34382;43.160;24.148;2023-12-07T07:43:56;46.10;;;26.08;;
48596;SDS011;34382;43.160;24.148;2023-12-07T07:45:29;52.17;;;26.52;;
48596;SDS011;34382;43.160;24.148;2023-12-07T07:47:02;37.80;;;18.50;;
48596;SDS011;34382;43.160;24.148;2023-12-07T07:48:34;39.85;;;20.35;;
48596;SDS011;34382;43.160;24.148;2023-12-07T07:50:06;38.17;;;19.50;;
48596;SDS011;34382;43.160;24.148;2023-12-07T07:51:39;35.60;;;16.67;;
48596;SDS011;34382;43.160;24.148;2023-12-07T07:53:11;34.08;;;16.10;;
48596;SDS011;34382;43.160;24.148;2023-12-07T07:54:44;32.00;;;14.80;;
48596;SDS011;34382;43.160;24.148;2023-12-07T07:56:19;30.60;;;14.35;;
48596;SDS011;34382;43.160;24.148;2023-12-07T07:57:51;33.97;;;15.45;;
48596;SDS011;34382;43.160;24.148;2023-12-07T07:59:23;35.17;;;15.55;;
48596;SDS011;34382;43.160;24.148;2023-12-07T08:00:56;37.30;;;17.85;;
48596;SDS011;34382;43.160;24.148;2023-12-07T08:02:28;32.10;;;14.55;;
48596;SDS011;34382;43.160;24.148;2023-12-07T08:04:00;28.08;;;14.55;;
48596;SDS011;34382;43.160;24.148;2023-12-07T08:05:33;40.85;;;17.02;;
48596;SDS011;34382;43.160;24.148;2023-12-07T08:07:05;34.80;;;15.23;;
48596;SDS011;34382;43.160;24.148;2023-12-07T08:08:39;34.33;;;17.55;;
48596;SDS011;34382;43.160;24.148;2023-12-07T08:10:12;31.73;;;16.85;;
48596;SDS011;34382;43.160;24.148;2023-12-07T08:11:45;31.60;;;15.40;;
48596;SDS011;34382;43.160;24.148;2023-12-07T08:13:17;33.03;;;16.58;;
48596;SDS011;34382;43.160;24.148;2023-12-07T08:14:49;29.42;;;15.77;;
48596;SDS011;34382;43.160;24.148;2023-12-07T08:16:22;36.45;;;15.52;;
48596;SDS011;34382;43.160;24.148;2023-12-07T08:17:54;30.48;;;15.02;;
48596;SDS011;34382;43.160;24.148;2023-12-07T08:19:28;34.45;;;16.73;;
48596;SDS011;34382;43.160;24.148;2023-12-07T08:21:00;45.90;;;25.08;;
48596;SDS011;34382;43.160;24.148;2023-12-07T08:22:32;56.90;;;30.45;;
48596;SDS011;34382;43.160;24.148;2023-12-07T08:24:05;32.88;;;16.85;;
48596;SDS011;34382;43.160;24.148;2023-12-07T08:25:40;31.73;;;16.35;;
48596;SDS011;34382;43.160;24.148;2023-12-07T08:27:12;26.52;;;13.63;;
48596;SDS011;34382;43.160;24.148;2023-12-07T08:28:46;28.20;;;14.38;;
48596;SDS011;34382;43.160;24.148;2023-12-07T08:30:21;36.22;;;18.08;;
48596;SDS011;34382;43.160;24.148;2023-12-07T08:31:54;33.05;;;16.70;;
48596;SDS011;34382;43.160;24.148;2023-12-07T08:33:26;29.00;;;16.48;;
48596;SDS011;34382;43.160;24.148;2023-12-07T08:34:59;33.25;;;18.67;;
48596;SDS011;34382;43.160;24.148;2023-12-07T08:36:31;31.45;;;17.10;;
48596;SDS011;34382;43.160;24.148;2023-12-07T08:38:03;34.10;;;16.42;;
48596;SDS011;34382;43.160;24.148;2023-12-07T08:39:36;32.00;;;15.82;;
48596;SDS011;34382;43.160;24.148;2023-12-07T08:41:09;29.13;;;15.55;;
48596;SDS011;34382;43.160;24.148;2023-12-07T08:42:44;31.40;;;16.23;;
48596;SDS011;34382;43.160;24.148;2023-12-07T08:44:21;24.80;;;12.43;;
48596;SDS011;34382;43.160;24.148;2023-12-07T08:45:53;26.50;;;12.65;;
48596;SDS011;34382;43.160;24.148;2023-12-07T08:47:33;32.00;;;14.05;;
48596;SDS011;34382;43.160;24.148;2023-12-07T08:50:38;27.83;;;15.50;;
48596;SDS011;34382;43.160;24.148;2023-12-07T08:52:10;32.20;;;14.48;;
48596;SDS011;34382;43.160;24.148;2023-12-07T08:54:02;30.80;;;13.75;;
48596;SDS011;34382;43.160;24.148;2023-12-07T08:55:34;32.33;;;14.60;;
48596;SDS011;34382;43.160;24.148;2023-12-07T08:57:07;29.52;;;14.60;;
48596;SDS011;34382;43.160;24.148;2023-12-07T08:58:39;32.80;;;13.70;;
48596;SDS011;34382;43.160;24.148;2023-12-07T09:00:12;30.90;;;14.85;;
48596;SDS011;34382;43.160;24.148;2023-12-07T09:01:45;32.85;;;15.10;;
48596;SDS011;34382;43.160;24.148;2023-12-07T09:03:17;26.20;;;13.65;;
48596;SDS011;34382;43.160;24.148;2023-12-07T09:04:49;29.08;;;13.70;;
48596;SDS011;34382;43.160;24.148;2023-12-07T09:06:23;29.25;;;13.35;;
48596;SDS011;34382;43.160;24.148;2023-12-07T09:07:56;31.77;;;14.40;;
48596;SDS011;34382;43.160;24.148;2023-12-07T09:09:28;28.42;;;13.30;;
48596;SDS011;34382;43.160;24.148;2023-12-07T09:11:01;26.30;;;13.15;;